Huvudsida
METAR-TAF:

METAR-TAF

Flygplatser :

Hemavan Tärnaby Airport

Hemavan, Sverige

latitud: 65-48-22N, longitud: 015-04-58E, höjd: 458 m

Aktuellt väderrapport

Denna rapport gjordes för 6 minuter sedan, klockan 20:50 UTC
Stilla vind
Temperatur -24°C
Fuktighet 76%
Tryck 1026 hPa
Sikt 10 km eller mer

METAR: ESUT 212050Z AUTO 00000KT 9999 NCD M24/M27 Q1026

Tid: 21:56 (20:56 UTC)


TAF: saknas

Aktuella väderrapporter och prognoser från 4000 flygplatser (METAR- och TAF-rapporter).

De tillgängliga stationerna syns som gula och röda prickar på kartan.

För musen över prickarna för att se namnen på stationerna.

Klicka sedan för att få väderrapporter och prognoser.

För att ändra kartan: Klicka på de gröna knapparna med ett svart kors på för att zooma in; den gröna knappen med ett streck på för att zooma ut; eller på de gröna pilarna för angränsande kartor.


METAR-TAF: